Bancroft, Canada
Current Conditions -  °F | °C
As of 6:00 PM on Saturday 20 Dec 2014 (Local Time) from CYPQ Reporting Station
Clear Clear  
Wind Chill: 19°   Ceiling: Unl
Heat Index: 25°   Visibility: 9mi
Dew Point: 16°   Wind: 5mph
Humidity: 69%   Direction: 180°S
Pressure: 30.27"   Gusts: NA
Location:  45.06°N, 77.85°W
Report Text: CYPQ 202300Z AUTO 18004KT 9SM CLR M04/M09 A3027 RMK SLP262
Loading
Personal Weather Stations






























Interactive Weather Map New forecast layout! Learn more

10-Day Weather Forecast

Advertisements
Track Severe Weather on mobile